sensor_id;sensor_type;location;lat;lon;timestamp;P1;durP1;ratioP1;P2;durP2;ratioP2
45620;SDS011;31345;51.522;10.702;2024-03-23T00:56:18;3.58;;;2.33;;
45620;SDS011;31345;51.522;10.702;2024-03-23T00:58:50;3.53;;;2.30;;
45620;SDS011;31345;51.522;10.702;2024-03-23T01:01:22;4.43;;;2.22;;
45620;SDS011;31345;51.522;10.702;2024-03-23T01:03:54;5.20;;;2.13;;
45620;SDS011;31345;51.522;10.702;2024-03-23T01:06:26;3.30;;;1.98;;
45620;SDS011;31345;51.522;10.702;2024-03-23T01:08:59;3.50;;;2.03;;
45620;SDS011;31345;51.522;10.702;2024-03-23T01:11:32;4.72;;;2.28;;
45620;SDS011;31345;51.522;10.702;2024-03-23T01:14:04;5.85;;;2.33;;
45620;SDS011;31345;51.522;10.702;2024-03-23T01:16:37;4.32;;;2.03;;
45620;SDS011;31345;51.522;10.702;2024-03-23T01:19:08;4.10;;;2.33;;
45620;SDS011;31345;51.522;10.702;2024-03-23T01:21:41;5.22;;;2.42;;
45620;SDS011;31345;51.522;10.702;2024-03-23T01:24:15;6.53;;;2.78;;
45620;SDS011;31345;51.522;10.702;2024-03-23T01:26:43;4.70;;;2.63;;
45620;SDS011;31345;51.522;10.702;2024-03-23T01:29:14;5.15;;;2.30;;
45620;SDS011;31345;51.522;10.702;2024-03-23T01:31:47;4.03;;;2.33;;
45620;SDS011;31345;51.522;10.702;2024-03-23T01:34:19;4.28;;;2.17;;
45620;SDS011;31345;51.522;10.702;2024-03-23T01:36:52;6.45;;;3.13;;
45620;SDS011;31345;51.522;10.702;2024-03-23T01:39:25;5.25;;;2.42;;
45620;SDS011;31345;51.522;10.702;2024-03-23T01:41:57;4.78;;;2.35;;
45620;SDS011;31345;51.522;10.702;2024-03-23T01:44:29;4.85;;;2.25;;
45620;SDS011;31345;51.522;10.702;2024-03-23T01:47:01;4.55;;;2.38;;
45620;SDS011;31345;51.522;10.702;2024-03-23T01:49:34;6.22;;;2.15;;
45620;SDS011;31345;51.522;10.702;2024-03-23T01:52:02;4.95;;;2.78;;
45620;SDS011;31345;51.522;10.702;2024-03-23T01:54:36;5.30;;;2.50;;
45620;SDS011;31345;51.522;10.702;2024-03-23T01:57:09;4.68;;;2.20;;
45620;SDS011;31345;51.522;10.702;2024-03-23T01:59:41;5.03;;;2.45;;
45620;SDS011;31345;51.522;10.702;2024-03-23T02:02:15;8.07;;;2.90;;
45620;SDS011;31345;51.522;10.702;2024-03-23T02:04:48;5.82;;;2.55;;
45620;SDS011;31345;51.522;10.702;2024-03-23T02:07:21;4.97;;;2.50;;
45620;SDS011;31345;51.522;10.702;2024-03-23T02:09:54;5.15;;;2.53;;
45620;SDS011;31345;51.522;10.702;2024-03-23T02:12:27;6.70;;;2.72;;
45620;SDS011;31345;51.522;10.702;2024-03-23T02:14:58;3.63;;;2.33;;
45620;SDS011;31345;51.522;10.702;2024-03-23T02:17:32;4.93;;;2.40;;
45620;SDS011;31345;51.522;10.702;2024-03-23T02:20:05;5.28;;;2.75;;
45620;SDS011;31345;51.522;10.702;2024-03-23T02:22:38;4.20;;;2.28;;
45620;SDS011;31345;51.522;10.702;2024-03-23T02:25:11;5.25;;;2.15;;
45620;SDS011;31345;51.522;10.702;2024-03-23T02:27:44;3.95;;;2.30;;
45620;SDS011;31345;51.522;10.702;2024-03-23T02:30:16;7.97;;;2.38;;
45620;SDS011;31345;51.522;10.702;2024-03-23T02:32:48;7.05;;;2.53;;
45620;SDS011;31345;51.522;10.702;2024-03-23T02:35:20;4.30;;;2.35;;
45620;SDS011;31345;51.522;10.702;2024-03-23T02:37:52;4.60;;;2.75;;
45620;SDS011;31345;51.522;10.702;2024-03-23T02:40:25;6.40;;;2.80;;
45620;SDS011;31345;51.522;10.702;2024-03-23T02:42:58;5.95;;;2.80;;
45620;SDS011;31345;51.522;10.702;2024-03-23T02:45:30;4.78;;;2.20;;
45620;SDS011;31345;51.522;10.702;2024-03-23T02:48:03;3.72;;;2.25;;
45620;SDS011;31345;51.522;10.702;2024-03-23T02:50:35;4.45;;;2.20;;
45620;SDS011;31345;51.522;10.702;2024-03-23T02:53:07;4.40;;;2.28;;
45620;SDS011;31345;51.522;10.702;2024-03-23T02:55:40;4.65;;;2.13;;
45620;SDS011;31345;51.522;10.702;2024-03-23T02:58:13;5.47;;;2.60;;
45620;SDS011;31345;51.522;10.702;2024-03-23T03:00:44;4.95;;;1.95;;
45620;SDS011;31345;51.522;10.702;2024-03-23T03:03:17;5.78;;;2.20;;
45620;SDS011;31345;51.522;10.702;2024-03-23T03:05:54;5.47;;;2.58;;
45620;SDS011;31345;51.522;10.702;2024-03-23T03:08:27;9.88;;;2.70;;
45620;SDS011;31345;51.522;10.702;2024-03-23T03:11:00;7.85;;;2.78;;
45620;SDS011;31345;51.522;10.702;2024-03-23T03:13:33;5.30;;;2.55;;
45620;SDS011;31345;51.522;10.702;2024-03-23T03:16:06;7.22;;;2.78;;
45620;SDS011;31345;51.522;10.702;2024-03-23T03:18:40;5.78;;;2.67;;
45620;SDS011;31345;51.522;10.702;2024-03-23T03:21:07;4.57;;;2.80;;
45620;SDS011;31345;51.522;10.702;2024-03-23T03:23:41;5.05;;;3.10;;
45620;SDS011;31345;51.522;10.702;2024-03-23T03:26:15;14.30;;;4.80;;
45620;SDS011;31345;51.522;10.702;2024-03-23T03:28:47;7.38;;;3.80;;
45620;SDS011;31345;51.522;10.702;2024-03-23T03:31:19;10.43;;;3.90;;
45620;SDS011;31345;51.522;10.702;2024-03-23T03:33:52;5.93;;;3.65;;
45620;SDS011;31345;51.522;10.702;2024-03-23T03:36:24;10.30;;;4.10;;
45620;SDS011;31345;51.522;10.702;2024-03-23T03:38:56;11.50;;;3.78;;
45620;SDS011;31345;51.522;10.702;2024-03-23T03:41:30;8.98;;;4.43;;
45620;SDS011;31345;51.522;10.702;2024-03-23T03:44:03;8.65;;;4.25;;
45620;SDS011;31345;51.522;10.702;2024-03-23T03:46:35;15.38;;;4.57;;
45620;SDS011;31345;51.522;10.702;2024-03-23T03:49:08;12.00;;;5.60;;
45620;SDS011;31345;51.522;10.702;2024-03-23T03:51:39;12.23;;;5.50;;
45620;SDS011;31345;51.522;10.702;2024-03-23T03:54:12;14.45;;;6.38;;
45620;SDS011;31345;51.522;10.702;2024-03-23T03:56:45;13.25;;;6.80;;
45620;SDS011;31345;51.522;10.702;2024-03-23T03:59:17;14.23;;;6.28;;
45620;SDS011;31345;51.522;10.702;2024-03-23T04:01:49;16.00;;;7.10;;
45620;SDS011;31345;51.522;10.702;2024-03-23T04:04:18;14.40;;;7.05;;
45620;SDS011;31345;51.522;10.702;2024-03-23T04:06:49;14.75;;;6.90;;
45620;SDS011;31345;51.522;10.702;2024-03-23T04:09:22;17.77;;;7.90;;
45620;SDS011;31345;51.522;10.702;2024-03-23T04:11:55;19.35;;;8.15;;
45620;SDS011;31345;51.522;10.702;2024-03-23T04:14:27;18.40;;;8.35;;
45620;SDS011;31345;51.522;10.702;2024-03-23T04:16:59;23.63;;;9.13;;
45620;SDS011;31345;51.522;10.702;2024-03-23T04:19:31;18.17;;;8.18;;
45620;SDS011;31345;51.522;10.702;2024-03-23T04:22:03;23.85;;;8.45;;
45620;SDS011;31345;51.522;10.702;2024-03-23T04:24:36;20.05;;;7.88;;
45620;SDS011;31345;51.522;10.702;2024-03-23T04:27:09;18.98;;;8.05;;
45620;SDS011;31345;51.522;10.702;2024-03-23T04:29:37;15.32;;;8.10;;
45620;SDS011;31345;51.522;10.702;2024-03-23T04:32:08;17.13;;;8.48;;
45620;SDS011;31345;51.522;10.702;2024-03-23T04:34:41;22.50;;;8.85;;
45620;SDS011;31345;51.522;10.702;2024-03-23T04:37:14;19.52;;;7.70;;
45620;SDS011;31345;51.522;10.702;2024-03-23T04:39:47;17.60;;;7.50;;
45620;SDS011;31345;51.522;10.702;2024-03-23T04:42:22;13.50;;;6.63;;
45620;SDS011;31345;51.522;10.702;2024-03-23T04:44:54;15.23;;;6.60;;
45620;SDS011;31345;51.522;10.702;2024-03-23T04:47:27;13.48;;;7.22;;
45620;SDS011;31345;51.522;10.702;2024-03-23T04:50:00;18.70;;;6.97;;
45620;SDS011;31345;51.522;10.702;2024-03-23T04:52:33;17.17;;;6.85;;
45620;SDS011;31345;51.522;10.702;2024-03-23T04:55:05;16.77;;;7.03;;
45620;SDS011;31345;51.522;10.702;2024-03-23T04:57:40;15.00;;;8.02;;
45620;SDS011;31345;51.522;10.702;2024-03-23T05:00:12;17.00;;;7.65;;
45620;SDS011;31345;51.522;10.702;2024-03-23T05:02:48;21.02;;;7.43;;
45620;SDS011;31345;51.522;10.702;2024-03-23T05:05:20;17.73;;;6.50;;
45620;SDS011;31345;51.522;10.702;2024-03-23T05:07:53;13.63;;;6.47;;
45620;SDS011;31345;51.522;10.702;2024-03-23T05:10:24;14.00;;;5.88;;
45620;SDS011;31345;51.522;10.702;2024-03-23T05:12:58;17.80;;;6.70;;
45620;SDS011;31345;51.522;10.702;2024-03-23T05:15:30;20.27;;;6.55;;
45620;SDS011;31345;51.522;10.702;2024-03-23T05:18:02;15.45;;;6.82;;
45620;SDS011;31345;51.522;10.702;2024-03-23T05:20:31;13.85;;;5.72;;
45620;SDS011;31345;51.522;10.702;2024-03-23T05:23:04;16.77;;;6.88;;
45620;SDS011;31345;51.522;10.702;2024-03-23T05:25:36;16.10;;;6.13;;
45620;SDS011;31345;51.522;10.702;2024-03-23T05:28:10;17.92;;;7.28;;
45620;SDS011;31345;51.522;10.702;2024-03-23T05:30:41;15.90;;;6.55;;
45620;SDS011;31345;51.522;10.702;2024-03-23T05:33:14;17.98;;;6.88;;
45620;SDS011;31345;51.522;10.702;2024-03-23T05:35:45;19.33;;;7.30;;
45620;SDS011;31345;51.522;10.702;2024-03-23T05:38:18;12.23;;;6.28;;
45620;SDS011;31345;51.522;10.702;2024-03-23T05:40:54;12.10;;;6.18;;
45620;SDS011;31345;51.522;10.702;2024-03-23T05:43:28;14.98;;;6.72;;
45620;SDS011;31345;51.522;10.702;2024-03-23T05:46:00;12.07;;;6.28;;
45620;SDS011;31345;51.522;10.702;2024-03-23T05:48:33;12.95;;;6.20;;
45620;SDS011;31345;51.522;10.702;2024-03-23T05:51:06;12.48;;;6.30;;
45620;SDS011;31345;51.522;10.702;2024-03-23T05:53:37;11.90;;;6.18;;
45620;SDS011;31345;51.522;10.702;2024-03-23T05:56:10;10.95;;;5.70;;
45620;SDS011;31345;51.522;10.702;2024-03-23T05:58:43;14.98;;;6.47;;
45620;SDS011;31345;51.522;10.702;2024-03-23T06:01:16;10.73;;;5.95;;
45620;SDS011;31345;51.522;10.702;2024-03-23T06:03:42;15.02;;;6.25;;
45620;SDS011;31345;51.522;10.702;2024-03-23T06:06:15;14.02;;;6.85;;
45620;SDS011;31345;51.522;10.702;2024-03-23T06:08:42;15.70;;;6.47;;
45620;SDS011;31345;51.522;10.702;2024-03-23T06:11:14;11.75;;;4.50;;
45620;SDS011;31345;51.522;10.702;2024-03-23T06:13:41;7.30;;;4.30;;
45620;SDS011;31345;51.522;10.702;2024-03-23T06:16:15;3.63;;;1.90;;
45620;SDS011;31345;51.522;10.702;2024-03-23T06:18:46;3.72;;;1.33;;
45620;SDS011;31345;51.522;10.702;2024-03-23T06:21:14;3.58;;;1.80;;
45620;SDS011;31345;51.522;10.702;2024-03-23T06:23:45;4.25;;;2.15;;
45620;SDS011;31345;51.522;10.702;2024-03-23T06:26:22;7.22;;;2.63;;
45620;SDS011;31345;51.522;10.702;2024-03-23T06:28:54;7.53;;;2.40;;
45620;SDS011;31345;51.522;10.702;2024-03-23T06:31:28;4.15;;;2.25;;
45620;SDS011;31345;51.522;10.702;2024-03-23T06:34:00;3.85;;;1.67;;
45620;SDS011;31345;51.522;10.702;2024-03-23T06:36:32;3.17;;;1.80;;
45620;SDS011;31345;51.522;10.702;2024-03-23T06:39:04;2.83;;;1.25;;
45620;SDS011;31345;51.522;10.702;2024-03-23T06:41:37;1.73;;;0.90;;
45620;SDS011;31345;51.522;10.702;2024-03-23T06:44:08;2.53;;;0.80;;
45620;SDS011;31345;51.522;10.702;2024-03-23T06:46:42;2.45;;;0.60;;
45620;SDS011;31345;51.522;10.702;2024-03-23T06:49:09;1.30;;;0.88;;
45620;SDS011;31345;51.522;10.702;2024-03-23T06:51:42;0.93;;;0.60;;
45620;SDS011;31345;51.522;10.702;2024-03-23T06:54:13;1.97;;;0.70;;
45620;SDS011;31345;51.522;10.702;2024-03-23T06:56:46;0.43;;;0.40;;
45620;SDS011;31345;51.522;10.702;2024-03-23T06:59:17;1.52;;;0.70;;
45620;SDS011;31345;51.522;10.702;2024-03-23T07:01:51;0.60;;;0.60;;
45620;SDS011;31345;51.522;10.702;2024-03-23T07:04:23;0.70;;;0.50;;
45620;SDS011;31345;51.522;10.702;2024-03-23T07:06:55;1.27;;;0.40;;
45620;SDS011;31345;51.522;10.702;2024-03-23T07:09:27;0.40;;;0.40;;
45620;SDS011;31345;51.522;10.702;2024-03-23T07:12:00;0.90;;;0.60;;
45620;SDS011;31345;51.522;10.702;2024-03-23T07:14:31;0.90;;;0.50;;
45620;SDS011;31345;51.522;10.702;2024-03-23T07:17:06;1.10;;;0.50;;
45620;SDS011;31345;51.522;10.702;2024-03-23T07:19:37;0.50;;;0.50;;
45620;SDS011;31345;51.522;10.702;2024-03-23T07:22:10;1.55;;;0.50;;
45620;SDS011;31345;51.522;10.702;2024-03-23T07:24:41;0.50;;;0.50;;
45620;SDS011;31345;51.522;10.702;2024-03-23T07:27:14;0.73;;;0.33;;
45620;SDS011;31345;51.522;10.702;2024-03-23T07:29:46;0.95;;;0.50;;
45620;SDS011;31345;51.522;10.702;2024-03-23T07:32:20;0.60;;;0.50;;
45620;SDS011;31345;51.522;10.702;2024-03-23T07:34:51;0.40;;;0.40;;
45620;SDS011;31345;51.522;10.702;2024-03-23T07:37:24;0.45;;;0.45;;
45620;SDS011;31345;51.522;10.702;2024-03-23T07:39:56;0.40;;;0.40;;
45620;SDS011;31345;51.522;10.702;2024-03-23T07:42:25;0.77;;;0.40;;
45620;SDS011;31345;51.522;10.702;2024-03-23T07:44:57;1.83;;;0.50;;
45620;SDS011;31345;51.522;10.702;2024-03-23T07:47:26;0.70;;;0.60;;
45620;SDS011;31345;51.522;10.702;2024-03-23T07:49:58;2.47;;;0.70;;
45620;SDS011;31345;51.522;10.702;2024-03-23T07:52:30;0.60;;;0.60;;
45620;SDS011;31345;51.522;10.702;2024-03-23T07:55:02;0.70;;;0.60;;
45620;SDS011;31345;51.522;10.702;2024-03-23T07:57:35;2.00;;;0.90;;
45620;SDS011;31345;51.522;10.702;2024-03-23T08:00:07;0.97;;;0.70;;
45620;SDS011;31345;51.522;10.702;2024-03-23T08:02:41;0.80;;;0.67;;
45620;SDS011;31345;51.522;10.702;2024-03-23T08:05:13;1.47;;;0.83;;
45620;SDS011;31345;51.522;10.702;2024-03-23T08:07:46;1.87;;;0.77;;
45620;SDS011;31345;51.522;10.702;2024-03-23T08:10:17;1.80;;;1.00;;
45620;SDS011;31345;51.522;10.702;2024-03-23T08:12:50;1.17;;;0.73;;
45620;SDS011;31345;51.522;10.702;2024-03-23T08:15:21;1.27;;;0.80;;
45620;SDS011;31345;51.522;10.702;2024-03-23T08:17:55;1.13;;;0.60;;
45620;SDS011;31345;51.522;10.702;2024-03-23T08:20:22;3.00;;;1.00;;
45620;SDS011;31345;51.522;10.702;2024-03-23T08:22:55;4.35;;;0.90;;
45620;SDS011;31345;51.522;10.702;2024-03-23T08:25:26;3.27;;;0.80;;
45620;SDS011;31345;51.522;10.702;2024-03-23T08:27:59;1.03;;;0.60;;
45620;SDS011;31345;51.522;10.702;2024-03-23T08:30:25;2.10;;;0.80;;
45620;SDS011;31345;51.522;10.702;2024-03-23T08:32:59;2.77;;;0.70;;
45620;SDS011;31345;51.522;10.702;2024-03-23T08:35:26;2.00;;;0.80;;
45620;SDS011;31345;51.522;10.702;2024-03-23T08:37:58;3.13;;;1.00;;
45620;SDS011;31345;51.522;10.702;2024-03-23T08:40:30;1.93;;;0.83;;
45620;SDS011;31345;51.522;10.702;2024-03-23T08:43:03;2.07;;;1.00;;
45620;SDS011;31345;51.522;10.702;2024-03-23T08:45:34;2.33;;;1.00;;
45620;SDS011;31345;51.522;10.702;2024-03-23T08:48:08;2.53;;;1.10;;
45620;SDS011;31345;51.522;10.702;2024-03-23T08:50:40;1.55;;;0.80;;
45620;SDS011;31345;51.522;10.702;2024-03-23T08:53:13;3.33;;;1.20;;
45620;SDS011;31345;51.522;10.702;2024-03-23T08:55:52;2.70;;;0.90;;
45620;SDS011;31345;51.522;10.702;2024-03-23T08:58:25;2.67;;;0.80;;
45620;SDS011;31345;51.522;10.702;2024-03-23T09:01:02;2.70;;;1.40;;
45620;SDS011;31345;51.522;10.702;2024-03-23T09:03:37;1.97;;;0.80;;
45620;SDS011;31345;51.522;10.702;2024-03-23T09:06:09;1.77;;;1.10;;
45620;SDS011;31345;51.522;10.702;2024-03-23T09:08:38;2.93;;;1.00;;
45620;SDS011;31345;51.522;10.702;2024-03-23T09:11:12;3.50;;;1.20;;
45620;SDS011;31345;51.522;10.702;2024-03-23T09:13:40;4.17;;;1.10;;
45620;SDS011;31345;51.522;10.702;2024-03-23T09:16:12;7.70;;;1.87;;
45620;SDS011;31345;51.522;10.702;2024-03-23T09:18:46;3.57;;;1.30;;
45620;SDS011;31345;51.522;10.702;2024-03-23T09:21:18;4.03;;;1.37;;
45620;SDS011;31345;51.522;10.702;2024-03-23T09:23:50;5.00;;;1.60;;
45620;SDS011;31345;51.522;10.702;2024-03-23T09:26:22;6.07;;;1.40;;
45620;SDS011;31345;51.522;10.702;2024-03-23T09:28:55;4.93;;;1.40;;
45620;SDS011;31345;51.522;10.702;2024-03-23T09:31:26;3.30;;;1.10;;
45620;SDS011;31345;51.522;10.702;2024-03-23T09:34:00;2.23;;;1.30;;
45620;SDS011;31345;51.522;10.702;2024-03-23T09:36:27;2.77;;;1.20;;
45620;SDS011;31345;51.522;10.702;2024-03-23T09:38:54;2.07;;;1.10;;
45620;SDS011;31345;51.522;10.702;2024-03-23T09:41:26;1.30;;;0.90;;
45620;SDS011;31345;51.522;10.702;2024-03-23T09:43:58;2.80;;;1.08;;
45620;SDS011;31345;51.522;10.702;2024-03-23T09:46:30;2.67;;;1.20;;
45620;SDS011;31345;51.522;10.702;2024-03-23T09:49:06;3.20;;;1.23;;
45620;SDS011;31345;51.522;10.702;2024-03-23T09:51:39;3.58;;;1.52;;
45620;SDS011;31345;51.522;10.702;2024-03-23T09:54:12;2.63;;;1.27;;
45620;SDS011;31345;51.522;10.702;2024-03-23T09:56:44;2.42;;;1.45;;
45620;SDS011;31345;51.522;10.702;2024-03-23T09:59:16;3.17;;;1.73;;
45620;SDS011;31345;51.522;10.702;2024-03-23T10:01:43;6.43;;;1.97;;
45620;SDS011;31345;51.522;10.702;2024-03-23T10:07:13;5.18;;;2.05;;
45620;SDS011;31345;51.522;10.702;2024-03-23T10:09:48;8.10;;;2.85;;
45620;SDS011;31345;51.522;10.702;2024-03-23T10:12:19;5.15;;;2.13;;
45620;SDS011;31345;51.522;10.702;2024-03-23T10:14:52;9.90;;;2.20;;
45620;SDS011;31345;51.522;10.702;2024-03-23T10:17:24;7.40;;;3.30;;
45620;SDS011;31345;51.522;10.702;2024-03-23T10:19:58;8.63;;;2.97;;
45620;SDS011;31345;51.522;10.702;2024-03-23T10:22:29;6.80;;;2.83;;
45620;SDS011;31345;51.522;10.702;2024-03-23T10:25:09;13.70;;;3.58;;
45620;SDS011;31345;51.522;10.702;2024-03-23T10:27:42;8.65;;;3.45;;
45620;SDS011;31345;51.522;10.702;2024-03-23T10:30:15;10.52;;;3.38;;
45620;SDS011;31345;51.522;10.702;2024-03-23T10:32:47;7.30;;;3.60;;
45620;SDS011;31345;51.522;10.702;2024-03-23T10:35:23;10.43;;;4.65;;
45620;SDS011;31345;51.522;10.702;2024-03-23T10:37:54;10.07;;;4.00;;
45620;SDS011;31345;51.522;10.702;2024-03-23T10:40:28;11.98;;;3.97;;
45620;SDS011;31345;51.522;10.702;2024-03-23T10:43:01;8.35;;;3.80;;
45620;SDS011;31345;51.522;10.702;2024-03-23T10:45:35;9.30;;;4.55;;
45620;SDS011;31345;51.522;10.702;2024-03-23T10:48:07;14.77;;;5.47;;
45620;SDS011;31345;51.522;10.702;2024-03-23T10:50:41;19.00;;;5.03;;
45620;SDS011;31345;51.522;10.702;2024-03-23T10:53:13;11.55;;;4.03;;
45620;SDS011;31345;51.522;10.702;2024-03-23T10:55:48;12.93;;;4.38;;
45620;SDS011;31345;51.522;10.702;2024-03-23T10:58:23;15.95;;;5.20;;
45620;SDS011;31345;51.522;10.702;2024-03-23T11:00:58;14.70;;;4.90;;
45620;SDS011;31345;51.522;10.702;2024-03-23T11:03:32;12.02;;;4.88;;
45620;SDS011;31345;51.522;10.702;2024-03-23T11:06:06;9.52;;;4.68;;
45620;SDS011;31345;51.522;10.702;2024-03-23T11:08:40;13.18;;;4.65;;
45620;SDS011;31345;51.522;10.702;2024-03-23T11:11:19;12.82;;;4.88;;
45620;SDS011;31345;51.522;10.702;2024-03-23T11:13:53;8.45;;;4.72;;
45620;SDS011;31345;51.522;10.702;2024-03-23T11:16:26;9.23;;;4.88;;
45620;SDS011;31345;51.522;10.702;2024-03-23T11:22:08;12.82;;;5.65;;
45620;SDS011;31345;51.522;10.702;2024-03-23T11:24:42;11.88;;;4.45;;
45620;SDS011;31345;51.522;10.702;2024-03-23T11:27:21;11.00;;;4.68;;
45620;SDS011;31345;51.522;10.702;2024-03-23T11:29:54;8.20;;;3.78;;
45620;SDS011;31345;51.522;10.702;2024-03-23T11:32:40;7.88;;;4.60;;
45620;SDS011;31345;51.522;10.702;2024-03-23T11:35:26;13.40;;;4.70;;
45620;SDS011;31345;51.522;10.702;2024-03-23T11:38:04;8.18;;;4.65;;
45620;SDS011;31345;51.522;10.702;2024-03-23T11:40:38;11.38;;;5.00;;
45620;SDS011;31345;51.522;10.702;2024-03-23T11:43:06;13.73;;;5.15;;
45620;SDS011;31345;51.522;10.702;2024-03-23T11:45:42;12.82;;;5.38;;
45620;SDS011;31345;51.522;10.702;2024-03-23T11:48:14;15.05;;;6.22;;
45620;SDS011;31345;51.522;10.702;2024-03-23T11:50:44;11.45;;;6.50;;
45620;SDS011;31345;51.522;10.702;2024-03-23T11:53:18;12.23;;;5.45;;
45620;SDS011;31345;51.522;10.702;2024-03-23T11:55:54;13.93;;;4.70;;
45620;SDS011;31345;51.522;10.702;2024-03-23T11:58:27;16.60;;;5.85;;
45620;SDS011;31345;51.522;10.702;2024-03-23T12:01:00;10.57;;;4.75;;
45620;SDS011;31345;51.522;10.702;2024-03-23T12:03:33;10.80;;;5.45;;
45620;SDS011;31345;51.522;10.702;2024-03-23T12:06:06;10.88;;;4.65;;
45620;SDS011;31345;51.522;10.702;2024-03-23T12:08:40;11.05;;;5.05;;
45620;SDS011;31345;51.522;10.702;2024-03-23T12:11:08;12.10;;;5.13;;
45620;SDS011;31345;51.522;10.702;2024-03-23T12:13:42;10.02;;;4.75;;
45620;SDS011;31345;51.522;10.702;2024-03-23T12:16:17;10.15;;;5.63;;
45620;SDS011;31345;51.522;10.702;2024-03-23T12:18:51;9.02;;;4.47;;
45620;SDS011;31345;51.522;10.702;2024-03-23T12:21:23;10.27;;;5.00;;
45620;SDS011;31345;51.522;10.702;2024-03-23T12:23:56;11.63;;;5.55;;
45620;SDS011;31345;51.522;10.702;2024-03-23T12:26:29;6.35;;;3.72;;
45620;SDS011;31345;51.522;10.702;2024-03-23T12:29:01;8.63;;;3.92;;
45620;SDS011;31345;51.522;10.702;2024-03-23T12:31:33;8.13;;;3.80;;
45620;SDS011;31345;51.522;10.702;2024-03-23T12:34:05;10.70;;;4.57;;
45620;SDS011;31345;51.522;10.702;2024-03-23T12:36:33;10.13;;;4.20;;
45620;SDS011;31345;51.522;10.702;2024-03-23T12:39:07;7.33;;;4.47;;
45620;SDS011;31345;51.522;10.702;2024-03-23T12:41:40;13.63;;;4.97;;
45620;SDS011;31345;51.522;10.702;2024-03-23T12:44:12;9.07;;;4.67;;
45620;SDS011;31345;51.522;10.702;2024-03-23T12:46:46;11.90;;;4.80;;
45620;SDS011;31345;51.522;10.702;2024-03-23T12:49:18;8.68;;;4.60;;
45620;SDS011;31345;51.522;10.702;2024-03-23T12:51:53;10.57;;;5.18;;
45620;SDS011;31345;51.522;10.702;2024-03-23T12:54:27;9.90;;;5.20;;
45620;SDS011;31345;51.522;10.702;2024-03-23T12:56:59;7.57;;;4.82;;
45620;SDS011;31345;51.522;10.702;2024-03-23T12:59:31;10.40;;;5.53;;
45620;SDS011;31345;51.522;10.702;2024-03-23T13:02:06;8.45;;;5.00;;
45620;SDS011;31345;51.522;10.702;2024-03-23T13:04:38;7.13;;;5.00;;
45620;SDS011;31345;51.522;10.702;2024-03-23T13:07:11;6.72;;;4.80;;
45620;SDS011;31345;51.522;10.702;2024-03-23T13:09:43;8.35;;;4.55;;
45620;SDS011;31345;51.522;10.702;2024-03-23T13:12:16;7.22;;;4.13;;
45620;SDS011;31345;51.522;10.702;2024-03-23T13:14:49;7.47;;;4.25;;
45620;SDS011;31345;51.522;10.702;2024-03-23T13:17:22;9.05;;;4.20;;
45620;SDS011;31345;51.522;10.702;2024-03-23T13:19:53;6.72;;;4.22;;
45620;SDS011;31345;51.522;10.702;2024-03-23T13:22:26;8.43;;;5.03;;
45620;SDS011;31345;51.522;10.702;2024-03-23T13:24:59;5.43;;;3.70;;
45620;SDS011;31345;51.522;10.702;2024-03-23T13:27:32;4.93;;;3.00;;
45620;SDS011;31345;51.522;10.702;2024-03-23T13:29:59;5.35;;;3.65;;
45620;SDS011;31345;51.522;10.702;2024-03-23T13:32:34;4.80;;;2.97;;
45620;SDS011;31345;51.522;10.702;2024-03-23T13:35:06;5.30;;;3.15;;
45620;SDS011;31345;51.522;10.702;2024-03-23T13:37:40;4.47;;;2.95;;
45620;SDS011;31345;51.522;10.702;2024-03-23T13:40:13;5.47;;;3.63;;
45620;SDS011;31345;51.522;10.702;2024-03-23T13:42:46;4.05;;;2.53;;
45620;SDS011;31345;51.522;10.702;2024-03-23T13:45:18;6.65;;;3.30;;
45620;SDS011;31345;51.522;10.702;2024-03-23T13:47:50;6.75;;;3.00;;
45620;SDS011;31345;51.522;10.702;2024-03-23T13:50:22;5.00;;;3.00;;
45620;SDS011;31345;51.522;10.702;2024-03-23T13:52:54;4.65;;;2.72;;
45620;SDS011;31345;51.522;10.702;2024-03-23T13:55:27;4.65;;;2.58;;
45620;SDS011;31345;51.522;10.702;2024-03-23T13:58:00;3.05;;;2.30;;
45620;SDS011;31345;51.522;10.702;2024-03-23T14:00:31;4.38;;;2.22;;
45620;SDS011;31345;51.522;10.702;2024-03-23T14:03:04;4.47;;;2.53;;
45620;SDS011;31345;51.522;10.702;2024-03-23T14:05:36;4.70;;;2.60;;
45620;SDS011;31345;51.522;10.702;2024-03-23T14:08:10;3.75;;;2.85;;
45620;SDS011;31345;51.522;10.702;2024-03-23T14:10:43;4.13;;;2.58;;
45620;SDS011;31345;51.522;10.702;2024-03-23T14:13:16;4.05;;;2.70;;
45620;SDS011;31345;51.522;10.702;2024-03-23T14:15:52;6.03;;;3.30;;
45620;SDS011;31345;51.522;10.702;2024-03-23T14:18:25;5.80;;;3.53;;
45620;SDS011;31345;51.522;10.702;2024-03-23T14:20:52;5.18;;;3.58;;
45620;SDS011;31345;51.522;10.702;2024-03-23T14:23:30;5.50;;;2.72;;
45620;SDS011;31345;51.522;10.702;2024-03-23T14:26:06;6.53;;;2.83;;
45620;SDS011;31345;51.522;10.702;2024-03-23T14:28:34;7.85;;;3.40;;
45620;SDS011;31345;51.522;10.702;2024-03-23T14:31:07;7.00;;;2.90;;
45620;SDS011;31345;51.522;10.702;2024-03-23T14:33:41;3.80;;;2.67;;
45620;SDS011;31345;51.522;10.702;2024-03-23T14:36:17;3.90;;;2.40;;
45620;SDS011;31345;51.522;10.702;2024-03-23T14:38:49;3.75;;;2.55;;
45620;SDS011;31345;51.522;10.702;2024-03-23T14:41:23;5.60;;;2.83;;
45620;SDS011;31345;51.522;10.702;2024-03-23T14:43:55;4.03;;;2.60;;
45620;SDS011;31345;51.522;10.702;2024-03-23T14:46:27;6.82;;;2.85;;
45620;SDS011;31345;51.522;10.702;2024-03-23T14:48:59;3.40;;;2.65;;
45620;SDS011;31345;51.522;10.702;2024-03-23T14:51:32;6.63;;;3.20;;
45620;SDS011;31345;51.522;10.702;2024-03-23T14:54:01;7.60;;;2.78;;
45620;SDS011;31345;51.522;10.702;2024-03-23T14:56:48;4.13;;;2.90;;
45620;SDS011;31345;51.522;10.702;2024-03-23T14:59:19;8.02;;;3.28;;
45620;SDS011;31345;51.522;10.702;2024-03-23T15:01:52;8.10;;;2.75;;
45620;SDS011;31345;51.522;10.702;2024-03-23T15:04:23;8.10;;;4.20;;
45620;SDS011;31345;51.522;10.702;2024-03-23T15:06:56;4.15;;;2.30;;
45620;SDS011;31345;51.522;10.702;2024-03-23T15:09:28;3.28;;;2.08;;
45620;SDS011;31345;51.522;10.702;2024-03-23T15:12:02;3.00;;;2.20;;
45620;SDS011;31345;51.522;10.702;2024-03-23T15:14:33;4.00;;;1.90;;
45620;SDS011;31345;51.522;10.702;2024-03-23T15:17:06;4.10;;;2.00;;
45620;SDS011;31345;51.522;10.702;2024-03-23T15:19:40;3.30;;;2.22;;
45620;SDS011;31345;51.522;10.702;2024-03-23T15:22:13;3.85;;;2.78;;
45620;SDS011;31345;51.522;10.702;2024-03-23T15:24:44;4.60;;;2.70;;
45620;SDS011;31345;51.522;10.702;2024-03-23T15:27:18;5.78;;;2.80;;
45620;SDS011;31345;51.522;10.702;2024-03-23T15:29:50;5.10;;;2.40;;
45620;SDS011;31345;51.522;10.702;2024-03-23T15:32:22;3.38;;;2.15;;
45620;SDS011;31345;51.522;10.702;2024-03-23T15:34:54;3.10;;;1.95;;
45620;SDS011;31345;51.522;10.702;2024-03-23T15:37:26;3.65;;;1.77;;
45620;SDS011;31345;51.522;10.702;2024-03-23T15:39:58;2.65;;;1.40;;
45620;SDS011;31345;51.522;10.702;2024-03-23T15:42:32;3.78;;;1.75;;
45620;SDS011;31345;51.522;10.702;2024-03-23T15:45:05;1.80;;;1.40;;
45620;SDS011;31345;51.522;10.702;2024-03-23T15:47:39;2.17;;;1.45;;
45620;SDS011;31345;51.522;10.702;2024-03-23T15:50:11;3.25;;;1.75;;
45620;SDS011;31345;51.522;10.702;2024-03-23T15:52:43;4.63;;;1.85;;
45620;SDS011;31345;51.522;10.702;2024-03-23T15:55:15;4.00;;;1.70;;
45620;SDS011;31345;51.522;10.702;2024-03-23T15:57:49;2.50;;;1.33;;
45620;SDS011;31345;51.522;10.702;2024-03-23T16:00:21;2.55;;;1.50;;
45620;SDS011;31345;51.522;10.702;2024-03-23T16:02:53;3.67;;;1.70;;